createdAt,value
2022-09-22T00:00:17.094Z,5.1
2022-09-22T00:01:17.075Z,5.06
2022-09-22T00:02:17.043Z,5.09
2022-09-22T00:03:17.115Z,5.02
2022-09-22T00:04:17.039Z,5.08
2022-09-22T00:05:17.007Z,5.09
2022-09-22T00:06:16.733Z,5.13
2022-09-22T00:07:16.721Z,5.06
2022-09-22T00:08:16.966Z,5.1
2022-09-22T00:09:16.438Z,5.05
2022-09-22T00:10:16.670Z,4.98
2022-09-22T00:11:16.666Z,5.06
2022-09-22T00:12:16.896Z,5.1
2022-09-22T00:13:16.372Z,4.97
2022-09-22T00:14:16.351Z,4.9
2022-09-22T00:15:16.591Z,4.87
2022-09-22T00:16:16.835Z,4.95
2022-09-22T00:17:16.813Z,4.88
2022-09-22T00:18:16.286Z,4.87
2022-09-22T00:19:16.853Z,4.85
2022-09-22T00:20:16.514Z,4.78
2022-09-22T00:21:16.496Z,4.85
2022-09-22T00:22:16.477Z,4.76
2022-09-22T00:23:16.475Z,4.74
2022-09-22T00:24:16.447Z,4.72
2022-09-22T00:25:16.437Z,4.84
2022-09-22T00:26:16.159Z,4.75
2022-09-22T00:27:16.404Z,4.76
2022-09-22T00:28:16.132Z,4.78
2022-09-22T00:29:16.364Z,4.75
2022-09-22T00:30:16.351Z,4.76
2022-09-22T00:31:16.511Z,4.76
2022-09-22T00:32:16.323Z,4.79
2022-09-22T00:33:16.306Z,4.74
2022-09-22T00:34:16.285Z,4.76
2022-09-22T00:35:16.611Z,4.76
2022-09-22T00:36:16.511Z,4.75
2022-09-22T00:37:16.235Z,4.72
2022-09-22T00:38:16.221Z,4.69
2022-09-22T00:39:16.209Z,4.72
2022-09-22T00:40:16.629Z,4.64
2022-09-22T00:41:15.917Z,4.71
2022-09-22T00:42:15.909Z,4.6
2022-09-22T00:43:16.145Z,4.61
2022-09-22T00:44:16.381Z,4.6
2022-09-22T00:45:16.113Z,4.57
2022-09-22T00:46:16.291Z,4.61
2022-09-22T00:47:16.081Z,4.64
2022-09-22T00:48:15.808Z,4.6
2022-09-22T00:49:16.042Z,4.58
2022-09-22T00:50:16.043Z,4.57
2022-09-22T00:51:16.346Z,4.54
2022-09-22T00:52:16.006Z,4.65
2022-09-22T00:53:16.236Z,4.61
2022-09-22T00:54:15.972Z,4.61
2022-09-22T00:55:15.948Z,4.61
2022-09-22T00:56:16.193Z,4.64
2022-09-22T00:57:15.916Z,4.61
2022-09-22T00:58:16.155Z,4.66
2022-09-22T00:59:15.626Z,4.68
2022-09-22T01:00:15.874Z,4.69
2022-09-22T01:01:16.060Z,4.66
2022-09-22T01:02:16.396Z,4.65
2022-09-22T01:03:16.148Z,4.68
2022-09-22T01:04:15.813Z,4.75
2022-09-22T01:05:15.791Z,4.76
2022-09-22T01:06:15.771Z,4.83
2022-09-22T01:07:16.079Z,4.78
2022-09-22T01:08:15.487Z,4.78
2022-09-22T01:09:15.981Z,4.9
2022-09-22T01:10:15.959Z,4.84
2022-09-22T01:11:15.686Z,5
2022-09-22T01:12:15.667Z,4.9
2022-09-22T01:13:15.399Z,4.91
2022-09-22T01:14:15.649Z,4.95
2022-09-22T01:15:15.880Z,4.92
2022-09-22T01:16:15.857Z,4.92
2022-09-22T01:17:15.339Z,4.98
2022-09-22T01:18:15.582Z,4.98
2022-09-22T01:19:15.558Z,5.03
2022-09-22T01:20:15.545Z,5.03
2022-09-22T01:21:15.786Z,5.09
2022-09-22T01:22:15.510Z,5.1
2022-09-22T01:23:15.907Z,5.06
2022-09-22T01:24:15.477Z,5.03
2022-09-22T01:25:15.463Z,5.06
2022-09-22T01:26:15.718Z,5.1
2022-09-22T01:27:15.176Z,5.03
2022-09-22T01:28:15.415Z,5.1
2022-09-22T01:29:15.398Z,5.12
2022-09-22T01:30:15.400Z,5.15
2022-09-22T01:31:15.573Z,5.23
2022-09-22T01:32:15.605Z,5.2
2022-09-22T01:33:15.685Z,5.15
2022-09-22T01:35:15.306Z,5.16
2022-09-22T01:36:15.030Z,5.18
2022-09-22T01:37:15.272Z,5.16
2022-09-22T01:38:15.001Z,5.27
2022-09-22T01:39:15.565Z,5.21
2022-09-22T01:40:15.138Z,5.28
2022-09-22T01:41:15.207Z,5.23
2022-09-22T01:42:15.188Z,5.23
2022-09-22T01:43:15.173Z,5.21
2022-09-22T01:44:15.156Z,5.26
2022-09-22T01:45:15.141Z,5.34
2022-09-22T01:46:15.641Z,5.31
2022-09-22T01:47:15.114Z,5.23
2022-09-22T01:48:15.348Z,5.23
2022-09-22T01:49:15.333Z,5.26
2022-09-22T01:50:15.315Z,5.33
2022-09-22T01:51:15.052Z,5.24
2022-09-22T01:52:14.769Z,5.23
2022-09-22T01:53:14.765Z,5.24
2022-09-22T01:54:14.742Z,5.27
2022-09-22T01:55:15.309Z,5.27
2022-09-22T01:56:15.223Z,5.21
2022-09-22T01:57:15.206Z,5.23
2022-09-22T01:58:14.945Z,5.23
2022-09-22T01:59:14.671Z,5.18
2022-09-22T02:00:15.162Z,5.18
2022-09-22T02:01:19.282Z,5.18
2022-09-22T02:02:15.352Z,5.13
2022-09-22T02:03:14.854Z,5.16
2022-09-22T02:04:15.099Z,5.2
2022-09-22T02:05:14.819Z,5.21
2022-09-22T02:06:14.804Z,5.16
2022-09-22T02:07:14.791Z,5.21
2022-09-22T02:08:15.035Z,5.23
2022-09-22T02:09:14.508Z,5.23
2022-09-22T02:10:14.489Z,5.26
2022-09-22T02:11:15.063Z,5.21
2022-09-22T02:12:14.965Z,5.16
2022-09-22T02:13:14.689Z,5.18
2022-09-22T02:14:14.676Z,5.21
2022-09-22T02:15:14.407Z,5.16
2022-09-22T02:16:14.897Z,5.21
2022-09-22T02:17:14.637Z,5.18
2022-09-22T02:18:14.614Z,5.18
2022-09-22T02:19:18.206Z,5.06
2022-09-22T02:20:14.580Z,5.1
2022-09-22T02:21:14.308Z,5.06
2022-09-22T02:22:14.553Z,5.02
2022-09-22T02:23:14.543Z,4.97
2022-09-22T02:24:14.773Z,4.94
2022-09-22T02:25:14.498Z,4.97
2022-09-22T02:26:14.483Z,4.94
2022-09-22T02:27:14.800Z,4.92
2022-09-22T02:28:14.200Z,4.94
2022-09-22T02:29:14.436Z,4.88
2022-09-22T02:30:14.172Z,4.91
2022-09-22T02:31:24.899Z,4.85
2022-09-22T02:32:14.805Z,4.92
2022-09-22T02:33:14.375Z,4.95
2022-09-22T02:34:14.355Z,4.91
2022-09-22T02:35:14.595Z,4.91
2022-09-22T02:36:14.326Z,4.91
2022-09-22T02:37:14.309Z,4.94
2022-09-22T02:38:14.291Z,4.95
2022-09-22T02:39:14.273Z,4.95
2022-09-22T02:40:14.572Z,4.95
2022-09-22T02:41:14.243Z,4.94
2022-09-22T02:42:14.231Z,4.94
2022-09-22T02:43:14.540Z,4.9
2022-09-22T02:44:14.199Z,4.92
2022-09-22T02:45:14.176Z,4.98
2022-09-22T02:46:14.675Z,4.92
2022-09-22T02:47:13.888Z,4.94
2022-09-22T02:48:13.879Z,4.87
2022-09-22T02:49:14.118Z,4.87
2022-09-22T02:50:14.354Z,4.83
2022-09-22T02:51:14.338Z,4.87
2022-09-22T02:52:13.815Z,4.79
2022-09-22T02:53:14.054Z,4.78
2022-09-22T02:54:14.291Z,4.84
2022-09-22T02:55:14.324Z,4.76
2022-09-22T02:56:14.002Z,4.75
2022-09-22T02:57:14.000Z,4.75
2022-09-22T02:58:13.979Z,4.72
2022-09-22T02:59:14.631Z,4.68
2022-09-22T03:00:14.067Z,4.69
2022-09-22T03:01:14.397Z,4.66
2022-09-22T03:02:13.918Z,4.66
2022-09-22T03:03:13.644Z,4.68
2022-09-22T03:04:13.895Z,4.66
2022-09-22T03:05:14.285Z,4.66
2022-09-22T03:06:13.841Z,4.71
2022-09-22T03:07:13.833Z,4.69
2022-09-22T03:08:14.060Z,4.69
2022-09-22T03:09:13.550Z,4.71
2022-09-22T03:10:14.035Z,4.64
2022-09-22T03:11:14.019Z,4.68
2022-09-22T03:12:14.001Z,4.66
2022-09-22T03:13:20.992Z,4.65
2022-09-22T03:14:14.043Z,4.69
2022-09-22T03:15:14.039Z,4.58
2022-09-22T03:16:13.948Z,4.66
2022-09-22T03:17:13.409Z,4.58
2022-09-22T03:18:13.902Z,4.57
2022-09-22T03:19:13.623Z,4.64
2022-09-22T03:20:13.869Z,4.58
2022-09-22T03:21:13.595Z,4.6
2022-09-22T03:22:13.323Z,4.5
2022-09-22T03:23:13.816Z,4.57
2022-09-22T03:24:13.286Z,4.58
2022-09-22T03:25:13.786Z,4.51
2022-09-22T03:26:13.512Z,4.57
2022-09-22T03:27:13.752Z,4.54
2022-09-22T03:28:13.227Z,4.56
2022-09-22T03:29:13.540Z,4.48
2022-09-22T03:30:13.450Z,4.53
2022-09-22T03:31:13.993Z,4.42
2022-09-22T03:32:13.670Z,4.54
2022-09-22T03:49:27.263Z,4.17
2022-09-22T03:50:27.129Z,4.17
2022-09-22T03:51:27.115Z,4.15
2022-09-22T03:52:27.111Z,4.12
2022-09-22T03:53:26.818Z,4.21
2022-09-22T03:54:27.084Z,4.18
2022-09-22T03:55:26.790Z,4.12
2022-09-22T03:56:27.029Z,4.18
2022-09-22T03:57:26.746Z,4.17
2022-09-22T03:58:26.463Z,4.11
2022-09-22T03:59:26.465Z,4.14
2022-09-22T04:00:26.690Z,4.18
2022-09-22T04:01:26.890Z,4.15
2022-09-22T04:02:27.141Z,4.18
2022-09-22T04:03:26.929Z,4.21
2022-09-22T04:04:26.369Z,4.18
2022-09-22T04:05:26.928Z,4.08
2022-09-22T04:06:26.581Z,4.1
2022-09-22T04:07:26.826Z,4.11
2022-09-22T04:08:26.545Z,4.1
2022-09-22T04:09:26.280Z,4.15
2022-09-22T04:10:26.530Z,4.17
2022-09-22T04:11:26.509Z,4.17
2022-09-22T04:12:26.481Z,4.18
2022-09-22T04:13:26.220Z,4.2
2022-09-22T04:14:26.189Z,4.26
2022-09-22T04:15:26.690Z,4.24
2022-09-22T04:16:26.647Z,4.26
2022-09-22T04:17:26.147Z,4.24
2022-09-22T04:18:26.127Z,4.35
2022-09-22T04:19:26.393Z,4.38
2022-09-22T04:20:26.599Z,4.42
2022-09-22T04:21:26.674Z,4.4
2022-09-22T04:22:26.571Z,4.47
2022-09-22T04:23:26.297Z,4.44
2022-09-22T04:24:26.023Z,4.51
2022-09-22T04:25:26.256Z,4.48
2022-09-22T04:26:26.242Z,4.48
2022-09-22T04:27:26.232Z,4.44
2022-09-22T04:28:26.464Z,4.38
2022-09-22T04:29:26.450Z,4.35
2022-09-22T04:30:26.482Z,4.32
2022-09-22T04:31:26.159Z,4.38
2022-09-22T04:32:26.402Z,4.28
2022-09-22T04:33:26.399Z,4.29
2022-09-22T04:34:26.109Z,4.26
2022-09-22T04:35:25.842Z,4.2
2022-09-22T04:36:26.330Z,4.15
2022-09-22T04:37:26.392Z,4.14
2022-09-22T04:38:26.297Z,4.08
2022-09-22T04:39:28.529Z,4.12
2022-09-22T04:40:26.582Z,4.04
2022-09-22T04:41:25.997Z,4.07
2022-09-22T04:42:25.979Z,3.99
2022-09-22T04:43:25.702Z,4.07
2022-09-22T04:44:25.950Z,4.02
2022-09-22T04:45:25.926Z,4.02
2022-09-22T04:46:26.396Z,4
2022-09-22T04:47:26.147Z,4.03
2022-09-22T04:48:25.888Z,3.92
2022-09-22T04:49:25.601Z,3.94
2022-09-22T04:50:25.886Z,4.07
2022-09-22T04:51:25.581Z,3.99
2022-09-22T04:52:25.808Z,3.9
2022-09-22T04:53:26.123Z,3.94
2022-09-22T04:54:25.776Z,4.02
2022-09-22T04:55:25.763Z,3.92
2022-09-22T04:56:25.496Z,3.97
2022-09-22T04:57:25.474Z,4.07
2022-09-22T04:58:25.966Z,4.12
2022-09-22T04:59:25.945Z,4.07
2022-09-22T05:00:25.758Z,4.07
2022-09-22T05:01:26.142Z,4.12
2022-09-22T05:02:25.644Z,4.07
2022-09-22T05:03:27.356Z,4.08
2022-09-22T05:04:25.612Z,4.08
2022-09-22T05:05:25.972Z,4.08
2022-09-22T05:06:25.573Z,4.14
2022-09-22T05:07:25.555Z,4.15
2022-09-22T05:08:25.292Z,4.15
2022-09-22T05:09:25.862Z,4.15
2022-09-22T05:10:25.415Z,4.11
2022-09-22T05:11:25.490Z,4.15
2022-09-22T05:12:25.492Z,4.11
2022-09-22T05:13:25.461Z,4.14
2022-09-22T05:14:30.837Z,4.17
2022-09-22T05:15:25.679Z,4.28
2022-09-22T05:16:26.009Z,4.14
2022-09-22T05:17:25.400Z,4.24
2022-09-22T05:18:25.375Z,4.26
2022-09-22T05:19:25.615Z,4.28
2022-09-22T05:20:25.436Z,4.32
2022-09-22T05:21:25.064Z,4.12
2022-09-22T05:22:25.564Z,4.32
2022-09-22T05:23:25.545Z,4.3
2022-09-22T05:24:25.273Z,4.15
2022-09-22T05:25:25.722Z,4.26
2022-09-22T05:26:25.519Z,4.22
2022-09-22T05:27:24.966Z,4.29
2022-09-22T05:28:25.465Z,4.22
2022-09-22T05:29:30.266Z,4.18
2022-09-22T05:30:25.171Z,4.18
2022-09-22T05:31:25.585Z,4.32
2022-09-22T05:32:25.142Z,4.29
2022-09-22T05:33:25.376Z,4.28
2022-09-22T05:34:24.849Z,4.26
2022-09-22T05:35:25.344Z,4.36
2022-09-22T05:36:24.811Z,4.36
2022-09-22T05:37:25.313Z,4.33
2022-09-22T05:38:25.296Z,4.4
2022-09-22T05:39:25.277Z,4.48
2022-09-22T05:40:25.238Z,4.53
2022-09-22T05:41:25.394Z,4.57
2022-09-22T05:42:25.224Z,4.61
2022-09-22T05:43:25.222Z,4.65
2022-09-22T05:44:24.939Z,4.68
2022-09-22T05:45:25.258Z,4.72
2022-09-22T05:46:24.761Z,4.9
2022-09-22T05:47:25.144Z,4.94
2022-09-22T05:48:28.866Z,5.02
2022-09-22T05:49:24.626Z,5.09
2022-09-22T05:50:25.108Z,5.21
2022-09-22T05:51:25.083Z,5.26
2022-09-22T05:52:24.811Z,5.41
2022-09-22T05:53:25.046Z,5.44
2022-09-22T05:54:28.014Z,5.54
2022-09-22T05:55:24.758Z,5.6
2022-09-22T05:56:24.741Z,5.66
2022-09-22T05:57:25.055Z,5.63
2022-09-22T05:58:24.714Z,5.77
2022-09-22T05:59:24.696Z,5.85
2022-09-22T06:00:24.680Z,5.84
2022-09-22T06:01:24.878Z,5.92
2022-09-22T06:02:31.238Z,5.99
2022-09-22T06:03:24.381Z,6.07
2022-09-22T06:04:24.888Z,6.13
2022-09-22T06:05:24.859Z,6.13
2022-09-22T06:06:24.838Z,6.15
2022-09-22T06:07:24.312Z,6.17
2022-09-22T06:08:24.555Z,6.2
2022-09-22T06:09:24.282Z,6.26
2022-09-22T06:10:24.769Z,6.34
2022-09-22T06:11:24.506Z,6.42
2022-09-22T06:12:24.746Z,6.44
2022-09-22T06:13:24.799Z,6.49
2022-09-22T06:14:24.711Z,6.52
2022-09-22T06:15:24.483Z,6.55
2022-09-22T06:16:24.377Z,6.55
2022-09-22T06:17:24.156Z,6.57
2022-09-22T06:18:29.367Z,6.52
2022-09-22T06:19:24.380Z,6.52
2022-09-22T06:20:24.370Z,6.43
2022-09-22T06:21:24.610Z,6.42
2022-09-22T06:22:24.083Z,6.34
2022-09-22T06:23:24.064Z,6.29
2022-09-22T06:24:24.564Z,6.17
2022-09-22T06:25:24.543Z,6.14
2022-09-22T06:26:24.292Z,6.09
2022-09-22T06:27:24.511Z,6.02
2022-09-22T06:28:24.503Z,6.02
2022-09-22T06:29:24.578Z,6
2022-09-22T06:30:24.214Z,6.02
2022-09-22T06:31:24.445Z,6
2022-09-22T06:32:23.932Z,6.02
2022-09-22T06:33:24.171Z,5.92
2022-09-22T06:34:24.146Z,5.91
2022-09-22T06:35:24.135Z,5.92
2022-09-22T06:36:24.131Z,5.87
2022-09-22T06:37:24.107Z,5.92
2022-09-22T06:38:24.090Z,5.91
2022-09-22T06:39:24.327Z,5.88
2022-09-22T06:40:24.161Z,5.91
2022-09-22T06:41:24.303Z,5.87
2022-09-22T06:42:24.029Z,5.87
2022-09-22T06:43:24.269Z,5.87
2022-09-22T06:44:23.997Z,5.95
2022-09-22T06:45:24.385Z,5.96
2022-09-22T06:46:23.854Z,5.98
2022-09-22T06:47:23.953Z,5.88
2022-09-22T06:48:24.254Z,5.95
2022-09-22T06:49:24.178Z,5.98
2022-09-22T06:50:23.926Z,6.02
2022-09-22T06:51:23.893Z,6
2022-09-22T06:52:23.621Z,5.92
2022-09-22T06:53:27.812Z,5.89
2022-09-22T06:54:27.885Z,5.92
2022-09-22T06:55:23.568Z,5.92
2022-09-22T06:56:23.813Z,5.99
2022-09-22T06:57:23.542Z,6
2022-09-22T06:58:23.781Z,5.98
2022-09-22T06:59:24.648Z,5.99
2022-09-22T07:00:23.758Z,5.99
2022-09-22T07:01:24.467Z,6.13
2022-09-22T07:02:24.033Z,6.2
2022-09-22T07:03:23.703Z,6.13
2022-09-22T07:04:23.943Z,6.1
2022-09-22T07:05:23.675Z,6.18
2022-09-22T07:06:25.105Z,6.15
2022-09-22T07:07:23.930Z,6.25
2022-09-22T07:08:23.630Z,6.31
2022-09-22T07:09:23.406Z,6.29
2022-09-22T07:10:23.412Z,6.4
2022-09-22T07:11:23.912Z,6.42
2022-09-22T07:12:23.574Z,6.46
2022-09-22T07:13:23.811Z,6.47
2022-09-22T07:14:23.534Z,6.58
2022-09-22T07:15:23.524Z,6.55
2022-09-22T07:16:23.969Z,6.55
2022-09-22T07:17:23.819Z,6.54
2022-09-22T07:18:23.222Z,6.61
2022-09-22T07:19:23.467Z,6.62
2022-09-22T07:20:23.739Z,6.68
2022-09-22T07:21:23.659Z,6.76
2022-09-22T07:22:23.421Z,6.8
2022-09-22T07:23:23.592Z,6.79
2022-09-22T07:24:23.388Z,6.91
2022-09-22T07:25:23.373Z,6.88
2022-09-22T07:26:23.103Z,7.04
2022-09-22T07:27:23.596Z,7.08
2022-09-22T07:28:23.333Z,7.12
2022-09-22T07:29:23.575Z,7.11
2022-09-22T07:30:23.594Z,7.16
2022-09-22T07:31:28.940Z,7.26
2022-09-22T07:32:23.524Z,7.23
2022-09-22T07:33:23.589Z,7.21
2022-09-22T07:34:23.267Z,7.21
2022-09-22T07:35:22.968Z,7.34
2022-09-22T07:36:22.958Z,7.45
2022-09-22T07:37:23.203Z,7.48
2022-09-22T07:38:23.188Z,7.39
2022-09-22T07:39:22.915Z,7.45
2022-09-22T07:40:23.673Z,7.52
2022-09-22T07:41:23.398Z,7.51
2022-09-22T07:42:23.123Z,7.61
2022-09-22T07:43:23.367Z,7.78
2022-09-22T07:44:23.354Z,7.75
2022-09-22T07:45:23.336Z,7.82
2022-09-22T07:46:22.979Z,7.86
2022-09-22T07:47:23.314Z,7.92
2022-09-22T07:48:23.038Z,7.95
2022-09-22T07:49:23.381Z,8.01
2022-09-22T07:50:23.365Z,8.06
2022-09-22T07:51:23.248Z,8.13
2022-09-22T07:52:23.334Z,8.17
2022-09-22T07:53:23.284Z,8.16
2022-09-22T07:54:23.029Z,8.19
2022-09-22T07:55:22.959Z,8.26
2022-09-22T07:56:23.212Z,8.34
2022-09-22T07:57:23.367Z,8.47
2022-09-22T07:58:22.951Z,8.58
2022-09-22T07:59:23.207Z,8.65
2022-09-22T08:00:22.683Z,8.74
2022-09-22T08:01:22.930Z,8.85
2022-09-22T08:02:22.993Z,8.9
2022-09-22T08:03:22.832Z,9.03
2022-09-22T08:04:52.396Z,9.14
2022-09-22T08:05:23.263Z,9.17
2022-09-22T08:06:25.883Z,9.26
2022-09-22T08:07:23.029Z,9.29
2022-09-22T08:08:22.763Z,9.41
2022-09-22T08:09:22.500Z,9.48
2022-09-22T08:10:23.063Z,9.55
2022-09-22T08:11:22.721Z,9.57
2022-09-22T08:12:22.723Z,9.64
2022-09-22T08:13:22.953Z,9.74
2022-09-22T08:14:22.684Z,9.81
2022-09-22T08:15:27.617Z,9.92
2022-09-22T08:16:22.866Z,9.96
2022-09-22T08:17:22.980Z,10.03
2022-09-22T08:18:22.956Z,9.99
2022-09-22T08:19:22.614Z,10.03
2022-09-22T08:20:22.635Z,10.29
2022-09-22T08:21:22.904Z,10.32
2022-09-22T08:22:22.324Z,10.41
2022-09-22T08:23:22.310Z,10.54
2022-09-22T08:24:23.446Z,10.59
2022-09-22T08:25:22.537Z,10.67
2022-09-22T08:26:22.271Z,10.8
2022-09-22T08:27:22.514Z,10.87
2022-09-22T08:28:22.504Z,11.03
2022-09-22T08:29:22.597Z,11.05
2022-09-22T08:30:22.739Z,11.15
2022-09-22T08:31:22.533Z,11.31
2022-09-22T08:32:22.491Z,11.39
2022-09-22T08:33:22.231Z,11.51
2022-09-22T08:34:22.559Z,11.52
2022-09-22T08:35:22.172Z,11.63
2022-09-22T08:36:22.722Z,11.66
2022-09-22T08:37:22.730Z,11.78
2022-09-22T08:38:22.126Z,11.76
2022-09-22T08:39:22.461Z,11.81
2022-09-22T08:40:22.394Z,11.85
2022-09-22T08:41:22.608Z,11.94
2022-09-22T08:42:22.339Z,11.88
2022-09-22T08:43:22.583Z,11.97
2022-09-22T08:44:22.570Z,12.03
2022-09-22T08:45:27.065Z,11.95
2022-09-22T08:46:22.476Z,12.07
2022-09-22T08:47:22.543Z,12.08
2022-09-22T08:48:22.269Z,12.16
2022-09-22T08:49:22.511Z,12.19
2022-09-22T08:50:22.511Z,12.34
2022-09-22T08:51:21.991Z,12.28
2022-09-22T08:52:22.505Z,12.4
2022-09-22T08:53:22.524Z,12.52
2022-09-22T08:54:22.472Z,12.56
2022-09-22T08:55:22.191Z,12.65
2022-09-22T08:56:22.454Z,12.71
2022-09-22T08:57:22.439Z,12.7
2022-09-22T08:58:22.425Z,12.78
2022-09-22T08:59:21.906Z,12.86
2022-09-22T09:00:22.649Z,12.8
2022-09-22T09:01:22.658Z,12.99
2022-09-22T09:02:21.984Z,12.92
2022-09-22T09:03:22.112Z,13.07
2022-09-22T09:04:22.353Z,13.14
2022-09-22T09:05:22.091Z,13.2
2022-09-22T09:06:22.085Z,13.21
2022-09-22T09:07:22.327Z,13.1
2022-09-22T09:08:22.365Z,13.1
2022-09-22T09:09:22.358Z,13.16
2022-09-22T09:10:22.317Z,13.24
2022-09-22T09:12:22.269Z,13.2
2022-09-22T09:13:22.264Z,13.2
2022-09-22T09:14:21.747Z,13.21
2022-09-22T09:15:22.252Z,13.37
2022-09-22T09:16:22.164Z,13.17
2022-09-22T09:17:21.964Z,13.27
2022-09-22T09:18:21.957Z,13.27
2022-09-22T09:19:21.948Z,13.44
2022-09-22T09:20:22.311Z,13.57
2022-09-22T09:21:21.932Z,13.75
2022-09-22T09:22:22.174Z,13.91
2022-09-22T09:23:22.996Z,14.12
2022-09-22T09:25:32.909Z,14.23
2022-09-22T09:26:31.144Z,14.34
2022-09-22T09:27:31.381Z,14.44
2022-09-22T09:28:32.642Z,14.27
2022-09-22T09:29:31.631Z,14.13
2022-09-22T09:30:31.402Z,13.97
2022-09-22T09:31:31.831Z,13.88
2022-09-22T09:32:31.592Z,13.93
2022-09-22T09:33:31.575Z,14.08
2022-09-22T09:34:31.350Z,14.26
2022-09-22T09:35:31.536Z,14.45
2022-09-22T09:36:31.554Z,14.36
2022-09-22T09:37:31.293Z,14.31
2022-09-22T09:38:31.022Z,14.2
2022-09-22T09:39:31.269Z,14.03
2022-09-22T09:40:31.568Z,13.83
2022-09-22T09:41:31.577Z,13.62
2022-09-22T09:42:31.243Z,13.5
2022-09-22T09:43:31.229Z,13.35
2022-09-22T09:44:31.226Z,13.25
2022-09-22T09:45:31.215Z,12.98
2022-09-22T09:46:31.477Z,12.89
2022-09-22T09:47:31.189Z,12.76
2022-09-22T09:48:31.194Z,12.58
2022-09-22T09:49:31.432Z,12.58
2022-09-22T09:50:31.158Z,12.44
2022-09-22T09:51:31.414Z,12.36
2022-09-22T09:52:30.902Z,12.38
2022-09-22T09:53:31.401Z,12.41
2022-09-22T09:54:31.133Z,12.63
2022-09-22T09:55:31.543Z,12.94
2022-09-22T09:56:30.851Z,13.2
2022-09-22T09:57:33.089Z,13.5
2022-09-22T09:58:30.832Z,13.72
2022-09-22T09:59:31.083Z,13.91
2022-09-22T10:00:31.235Z,13.83
2022-09-22T10:01:31.217Z,13.81
2022-09-22T10:02:31.299Z,13.73
2022-09-22T10:03:31.460Z,13.57
2022-09-22T10:04:30.766Z,13.48
2022-09-22T10:05:31.293Z,13.44
2022-09-22T10:06:31.272Z,13.53
2022-09-22T10:08:30.993Z,13.45
2022-09-22T10:09:30.979Z,13.51
2022-09-22T10:10:31.047Z,13.53
2022-09-22T10:11:30.960Z,13.66
2022-09-22T10:12:30.692Z,13.75
2022-09-22T10:13:31.299Z,13.88
2022-09-22T10:14:31.182Z,13.99
2022-09-22T10:15:31.178Z,14.2
2022-09-22T10:16:30.667Z,14.28
2022-09-22T10:17:30.906Z,14.48
2022-09-22T10:18:30.895Z,14.49
2022-09-22T10:19:31.142Z,14.53
2022-09-22T10:20:30.662Z,14.63
2022-09-22T10:21:30.864Z,14.67
2022-09-22T10:22:31.119Z,14.82
2022-09-22T10:23:31.106Z,14.83
2022-09-22T10:24:30.579Z,14.82
2022-09-22T10:25:30.830Z,14.82
2022-09-22T10:26:31.251Z,14.87
2022-09-22T10:27:31.064Z,14.83
2022-09-22T10:28:30.544Z,14.86
2022-09-22T10:29:31.128Z,14.9
2022-09-22T10:30:30.828Z,14.86
2022-09-22T10:31:31.117Z,15.04
2022-09-22T10:32:30.769Z,15.33
2022-09-22T10:33:30.773Z,15.41
2022-09-22T10:34:30.501Z,15.55
2022-09-22T10:35:31.006Z,15.74
2022-09-22T10:36:30.736Z,15.89
2022-09-22T10:37:30.986Z,16.02
2022-09-22T10:38:30.849Z,16.02
2022-09-22T10:39:30.713Z,16.29
2022-09-22T10:40:31.261Z,16.3
2022-09-22T10:41:30.695Z,16.32
2022-09-22T10:42:30.978Z,16.51
2022-09-22T10:43:30.686Z,16.62
2022-09-22T10:44:51.669Z,16.81
2022-09-22T10:45:30.703Z,16.77
2022-09-22T10:46:31.322Z,16.69
2022-09-22T10:47:31.674Z,16.65
2022-09-22T10:48:30.656Z,16.66
2022-09-22T10:49:30.890Z,16.67
2022-09-22T10:50:30.775Z,16.81
2022-09-22T10:51:30.876Z,16.82
2022-09-22T10:52:30.869Z,16.81
2022-09-22T10:53:30.601Z,16.72
2022-09-22T10:54:30.625Z,16.69
2022-09-22T10:55:30.871Z,16.77
2022-09-22T10:56:30.598Z,16.77
2022-09-22T10:57:30.573Z,16.7
2022-09-22T10:58:30.569Z,16.52
2022-09-22T10:59:30.588Z,16.4
2022-09-22T11:00:32.187Z,16.26
2022-09-22T11:01:31.051Z,16.32
2022-09-22T11:02:30.285Z,16.27
2022-09-22T11:03:30.529Z,16.22
2022-09-22T11:04:30.691Z,16.18
2022-09-22T11:05:30.528Z,16.06
2022-09-22T11:06:30.505Z,15.93
2022-09-22T11:07:30.760Z,15.93
2022-09-22T11:08:30.237Z,15.89
2022-09-22T11:09:30.589Z,15.73
2022-09-22T11:10:30.229Z,15.74
2022-09-22T11:11:30.218Z,15.65
2022-09-22T11:12:30.476Z,15.74
2022-09-22T11:13:30.480Z,15.77
2022-09-22T11:14:30.711Z,15.84
2022-09-22T11:15:30.452Z,15.78
2022-09-22T11:16:30.482Z,15.93
2022-09-22T11:17:30.700Z,15.95
2022-09-22T11:18:30.519Z,15.77
2022-09-22T11:19:30.660Z,15.74
2022-09-22T11:20:30.151Z,15.68
2022-09-22T11:21:30.393Z,15.56
2022-09-22T11:22:30.650Z,15.52
2022-09-22T11:23:30.460Z,15.41
2022-09-22T11:24:30.633Z,15.35
2022-09-22T11:25:30.364Z,15.35
2022-09-22T11:26:30.608Z,15.3
2022-09-22T11:27:30.092Z,15.35
2022-09-22T11:28:30.336Z,15.41
2022-09-22T11:29:30.602Z,15.45
2022-09-22T11:30:30.063Z,15.47
2022-09-22T11:31:30.568Z,15.45
2022-09-22T11:32:30.624Z,15.47
2022-09-22T11:33:30.578Z,15.4
2022-09-22T11:34:30.290Z,15.44
2022-09-22T11:35:30.029Z,15.44
2022-09-22T11:36:30.278Z,15.47
2022-09-22T11:37:30.366Z,15.44
2022-09-22T11:38:30.077Z,15.58
2022-09-22T11:39:30.499Z,15.55
2022-09-22T11:40:30.202Z,15.6
2022-09-22T11:41:30.243Z,15.63
2022-09-22T11:42:30.476Z,15.63
2022-09-22T11:43:30.472Z,15.74
2022-09-22T11:44:30.471Z,15.91
2022-09-22T11:45:29.958Z,16.02
2022-09-22T11:46:30.578Z,16.25
2022-09-22T11:47:30.188Z,16.26
2022-09-22T11:48:30.795Z,16.48
2022-09-22T11:49:30.193Z,16.54
2022-09-22T11:50:30.199Z,16.8
2022-09-22T11:51:30.154Z,16.76
2022-09-22T11:52:30.147Z,16.84
2022-09-22T11:53:30.417Z,16.74
2022-09-22T11:54:30.130Z,16.67
2022-09-22T11:55:29.885Z,16.55
2022-09-22T11:56:30.112Z,16.26
2022-09-22T11:57:30.364Z,16.04
2022-09-22T11:58:29.843Z,15.73
2022-09-22T11:59:30.098Z,15.55
2022-09-22T12:00:30.085Z,15.35
2022-09-22T12:01:30.334Z,15.2
2022-09-22T12:02:30.244Z,15.23
2022-09-22T12:03:30.842Z,15.33
2022-09-22T12:04:30.104Z,15.35
2022-09-22T12:05:30.327Z,15.35
2022-09-22T12:06:30.037Z,15.4
2022-09-22T12:07:29.783Z,15.43
2022-09-22T12:08:30.274Z,15.44
2022-09-22T12:09:34.179Z,15.43
2022-09-22T12:10:30.010Z,15.44
2022-09-22T12:11:30.003Z,15.49
2022-09-22T12:12:30.249Z,15.43
2022-09-22T12:13:29.736Z,15.41
2022-09-22T12:14:29.973Z,15.41
2022-09-22T12:15:30.230Z,15.43
2022-09-22T12:16:29.966Z,15.47
2022-09-22T12:17:30.240Z,15.55
2022-09-22T12:18:29.693Z,15.44
2022-09-22T12:19:29.957Z,15.33
2022-09-22T12:20:29.981Z,15.22
2022-09-22T12:21:30.206Z,15.04
2022-09-22T12:22:30.189Z,14.82
2022-09-22T12:23:30.163Z,14.49
2022-09-22T12:24:30.154Z,14.45
2022-09-22T12:25:51.342Z,14.27
2022-09-22T12:26:30.143Z,14.12
2022-09-22T12:27:30.132Z,14.12
2022-09-22T12:28:29.616Z,14.12
2022-09-22T12:29:29.853Z,13.97
2022-09-22T12:30:29.755Z,13.97
2022-09-22T12:31:29.871Z,14.02
2022-09-22T12:32:29.583Z,13.97
2022-09-22T12:33:29.827Z,14.01
2022-09-22T12:34:29.572Z,14.11
2022-09-22T12:35:33.961Z,14.11
2022-09-22T12:36:29.806Z,14.2
2022-09-22T12:37:30.080Z,14.24
2022-09-22T12:38:29.786Z,14.36
2022-09-22T12:39:30.027Z,14.34
2022-09-22T12:40:29.730Z,14.39
2022-09-22T12:41:29.756Z,14.52
2022-09-22T12:42:29.498Z,14.57
2022-09-22T12:43:29.741Z,14.52
2022-09-22T12:44:29.999Z,14.56
2022-09-22T12:45:29.719Z,14.53
2022-09-22T12:46:29.972Z,14.63
2022-09-22T12:47:29.963Z,14.66
2022-09-22T12:48:29.963Z,14.67
2022-09-22T12:49:29.943Z,14.7
2022-09-22T12:50:29.683Z,14.66
2022-09-22T12:51:29.719Z,14.7
2022-09-22T12:52:29.668Z,14.67
2022-09-22T12:53:30.209Z,14.66
2022-09-22T12:54:29.645Z,14.69
2022-09-22T12:55:29.892Z,14.77
2022-09-22T12:56:29.383Z,14.74
2022-09-22T12:57:29.617Z,14.61
2022-09-22T12:58:29.612Z,14.69
2022-09-22T12:59:29.603Z,14.67
2022-09-22T13:00:35.372Z,14.66
2022-09-22T13:01:30.001Z,14.66
2022-09-22T13:02:29.877Z,14.6
2022-09-22T13:03:29.824Z,14.66
2022-09-22T13:04:29.558Z,14.63
2022-09-22T13:05:29.803Z,14.7
2022-09-22T13:06:29.798Z,14.82
2022-09-22T13:07:29.849Z,14.85
2022-09-22T13:08:29.782Z,14.75
2022-09-22T13:09:29.796Z,14.74
2022-09-22T13:10:29.789Z,14.75
2022-09-22T13:11:29.508Z,14.59
2022-09-22T13:12:29.752Z,14.59
2022-09-22T13:13:29.746Z,14.52
2022-09-22T13:14:29.475Z,14.39
2022-09-22T13:15:29.237Z,14.28
2022-09-22T13:16:29.605Z,14.09
2022-09-22T13:17:29.212Z,14.08
2022-09-22T13:18:29.459Z,13.99
2022-09-22T13:19:29.436Z,14.08
2022-09-22T13:20:29.692Z,14.08
2022-09-22T13:21:29.669Z,14.13
2022-09-22T13:22:29.406Z,14.09
2022-09-22T13:23:29.451Z,14.09
2022-09-22T13:24:31.747Z,14.01
2022-09-22T13:25:29.407Z,14.08
2022-09-22T13:26:29.632Z,14.09
2022-09-22T13:27:29.105Z,14.09
2022-09-22T13:28:29.101Z,14.16
2022-09-22T13:29:29.093Z,14.26
2022-09-22T13:30:29.919Z,14.28